»·PEaware :: N4269T S94-KSFF

N4269T :: S94-KSFF

FLIGHT INFORMATION

Flight Status: Arrived
Operator: Privately registered:
United States
More flights under this callsign
Pilot: Chuck O. (4337)
Aircraft: Unknown
(B60T)
More flights by this aircraft type
Origin: S94 Whitman Co Meml
United States
Destination: KSFF Felts
United States
More flights between these airports :: More routes between these airports
Route: COE
File this flight plan on PilotEdge
Remarks: KSFF ILS 22R
Altitude:
(Current/Filed)
9,000ft
Speed:
(Current/Filed)
220kts
Departed: 29-Aug-17 05:29 PM
Arrived: 29-Aug-17 05:58 PM
Distance/Time
Traveled:
50nm/0:29
Distance/Time
To Go:
Arrived

Flight Plot

Page will automatically refresh every two minutes.


Map Options




Map Legend


Flown Route
Filed Route
Departure Airport
Arrival Airport
Navaid (VOR, NDB)
Fix

Horizontal Profiles

Position Reports

Time Latitude Longitude Heading Altitude Ground
Speed
29-Aug-17 17:17 46.858034 -117.416478 180 2174ft 0kts
29-Aug-17 17:18 46.858034 -117.416478 180 2174ft 0kts
29-Aug-17 17:19 46.858032 -117.416478 180 2174ft 0kts
29-Aug-17 17:20 46.858030 -117.416478 180 2174ft 0kts
29-Aug-17 17:21 46.858028 -117.416478 180 2174ft 0kts
29-Aug-17 17:22 46.858086 -117.417079 292 2174ft 0kts
29-Aug-17 17:23 46.858088 -117.417086 292 2174ft 0kts
29-Aug-17 17:24 46.858090 -117.417092 292 2174ft 0kts
29-Aug-17 17:25 46.858092 -117.417098 292 2174ft 0kts
29-Aug-17 17:26 46.858094 -117.417104 292 2174ft 0kts
29-Aug-17 17:27 46.858095 -117.417108 292 2174ft 0kts
29-Aug-17 17:28 46.858096 -117.417113 292 2174ft 0kts
29-Aug-17 17:29 46.858097 -117.417117 292 2174ft 0kts
29-Aug-17 17:30 46.858215 -117.418454 270 2174ft 14kts
29-Aug-17 17:31 46.858331 -117.420335 330 2174ft 0kts
29-Aug-17 17:32 46.858723 -117.420161 96 2174ft 0kts
29-Aug-17 17:33 46.859239 -117.392932 85 2890ft 121kts
29-Aug-17 17:34 46.883930 -117.347556 351 4827ft 174kts
29-Aug-17 17:35 46.928860 -117.372024 16 6563ft 192kts
29-Aug-17 17:36 46.977856 -117.338598 23 8581ft 186kts
29-Aug-17 17:37 47.032074 -117.303330 23 8999ft 234kts
29-Aug-17 17:38 47.092950 -117.264202 23 8997ft 238kts
29-Aug-17 17:39 47.152945 -117.225337 23 8988ft 233kts
29-Aug-17 17:40 47.202186 -117.193641 24 8987ft 231kts
29-Aug-17 17:41 47.244979 -117.130560 49 8975ft 209kts
29-Aug-17 17:42 47.281846 -117.065935 49 8967ft 205kts
29-Aug-17 17:43 47.318431 -117.001758 49 8972ft 204kts
29-Aug-17 17:44 47.354322 -116.938772 49 8987ft 199kts
29-Aug-17 17:45 47.398873 -116.896165 3 8982ft 202kts
29-Aug-17 17:46 47.455191 -116.888569 7 8974ft 204kts
29-Aug-17 17:47 47.510722 -116.877086 8 8999ft 201kts
29-Aug-17 17:48 47.565587 -116.865300 8 9003ft 198kts
29-Aug-17 17:49 47.623920 -116.852803 8 8129ft 215kts
29-Aug-17 17:50 47.680884 -116.840502 8 7793ft 200kts
29-Aug-17 17:51 47.734325 -116.828918 8 7585ft 189kts
29-Aug-17 17:52 47.781411 -116.847794 302 7385ft 190kts
29-Aug-17 17:53 47.797262 -116.909312 290 7246ft 191kts
29-Aug-17 17:54 47.816395 -116.983221 290 7102ft 184kts
29-Aug-17 17:55 47.805735 -117.043084 236 6397ft 145kts
29-Aug-17 17:56 47.783946 -117.093057 237 5709ft 139kts
29-Aug-17 17:57 47.769597 -117.148610 235 4866ft 157kts
29-Aug-17 17:58 47.745119 -117.196217 233 3900ft 132kts
29-Aug-17 17:59 47.724129 -117.239131 234 3226ft 125kts
29-Aug-17 18:00 47.701704 -117.285158 234 2511ft 135kts
29-Aug-17 18:01 47.684092 -117.321223 234 1956ft 79kts
29-Aug-17 18:02 47.681130 -117.326130 149 1956ft 0kts
29-Aug-17 18:03 47.680849 -117.325868 140 1956ft 8kts
29-Aug-17 18:04 47.679997 -117.324453 73 1956ft 0kts
29-Aug-17 18:05 47.680993 -117.320474 72 1956ft 11kts
29-Aug-17 18:06 47.681667 -117.317850 69 1956ft 0kts
29-Aug-17 18:07 47.682403 -117.314933 69 1956ft 9kts
29-Aug-17 18:08 47.682731 -117.314993 92 1956ft 0kts

Navigation Log

Ident Type
Flight plan parsing failed, navigation log unavailable